Airfield :
LOGIN :

Register | Disclaimer

   EN    FR    IT 

 










Legend :    VFR   Marginal VFR   IFR   Intensive IFR   Very Intensive IFR
Visi :
Ceiling :
>= 8 km
>= 3000ft
5 to 8 km
1000 to 3000 ft
1500m to 5 km
500 to 1000 ft
800 to 1500m
200 to 500 ft
< 800m
< 200 ft
Symbols :   Thunderstorms  Fog  Heavy snow  Heavy precipitations  Wind > 20 kt
SIGMETs :     Misc.  Thunderstorms  Icing  Turbulence  Mountain Waves  Volcanic Ashes






- Airport Elevation : 147 ft
- IATA code : DUS


EDDL - Düsseldorf Int.

CURRENT METAR :
  • 312050Z 06006KT CAVOK 16/06 Q1022 NOSIG

EXPIRED METARs :
  • 312020Z 06007KT CAVOK 17/06 Q1022 NOSIG
  • 311950Z 05007KT CAVOK 18/06 Q1022 NOSIG
  • 311920Z 05008KT CAVOK 18/06 Q1021 NOSIG
  • 311850Z 05009KT CAVOK 19/06 Q1021 NOSIG
  • 311820Z 05011KT CAVOK 20/06 Q1021 NOSIG
  • 311750Z 06012KT CAVOK 20/06 Q1021 BECMG 06007KT

TAF TAF EDDL
Valid from the 31 at 18:00 until the 02 at 00:00 UTC


311700Z 3118/0124 05013KT CAVOK
BECMG 3118/3120 05006KT
TEMPO 3123/0107 VRB03KT
TEMPO 0110/0115 05011KT



MET'MAP, your aeronautical weather chart ! - Copyright ORBIFLY December 2007 - Disclaimer

ORBIFLY MET'MAP TEAM :

Programming & Development : Alexandra Zaïnal
Concept & original design : Baudouin d'Aumeries
Assistance for programming : Marc-Olivier Méhu
Technical & hardware support : Manuel Goepfert

Contact : metmap@orbifly.com




SOURCES & CREDITS :

   NOAA